Time;durP1;ratioP1;P1;durP2;ratioP2;P2;SDS_P1;SDS_P2;PMS_P1;PMS_P2;Temp;Humidity;BMP_temperature;BMP_pressure;BME280_temperature;BME280_humidity;BME280_pressure;Samples;Min_cycle;Max_cycle;Signal;HPM_P1;HPM_P2
2021/07/26 00:01:25;;;;;;;;;8.00;6.25;;;;;20.36;61.78;100706.50;4982595;28;45546;-89
2021/07/26 00:03:51;;;;;;;;;7.25;7.00;;;;;20.34;62.09;100700.53;4993874;28;45398;-89
2021/07/26 00:06:16;;;;;;;;;8.00;7.00;;;;;20.34;61.80;100707.59;4996317;28;45450;-89
2021/07/26 00:08:41;;;;;;;;;6.75;6.75;;;;;20.31;62.00;100699.91;4995081;28;48187;-89
2021/07/26 00:11:10;;;;;;;;;6.00;5.50;;;;;20.33;62.21;100709.41;4980279;28;45625;-89
2021/07/26 00:13:36;;;;;;;;;7.25;7.25;;;;;20.33;62.37;100709.41;4984293;28;45758;-89
2021/07/26 00:16:02;;;;;;;;;9.25;7.75;;;;;20.30;62.07;100701.72;5005342;28;45550;-89
2021/07/26 00:18:28;;;;;;;;;6.50;6.50;;;;;20.26;62.57;100695.84;4979851;28;47624;-90
2021/07/26 00:20:54;;;;;;;;;6.75;6.25;;;;;20.28;62.41;100701.00;4997014;28;45441;-90
2021/07/26 00:23:20;;;;;;;;;5.75;5.75;;;;;20.25;62.58;100699.44;4983631;28;45308;-90
2021/07/26 00:25:46;;;;;;;;;6.25;6.25;;;;;20.25;62.24;100695.94;4983361;28;45329;-90
2021/07/26 00:28:11;;;;;;;;;5.25;4.50;;;;;20.25;62.44;100690.66;4982200;28;45465;-89
2021/07/26 00:30:37;;;;;;;;;5.00;5.00;;;;;20.25;62.27;100699.44;4978872;28;45483;-89
2021/07/26 00:33:33;;;;;;;;;9.75;9.75;;;;;20.29;62.19;100689.47;4971242;28;45406;-89
2021/07/26 00:35:58;;;;;;;;;6.50;6.50;;;;;20.29;62.10;100690.28;4966559;28;45622;-90
2021/07/26 00:38:24;;;;;;;;;8.00;6.50;;;;;20.34;62.53;100697.03;4974470;28;45459;-89
2021/07/26 00:40:51;;;;;;;;;6.00;6.00;;;;;20.31;61.99;100692.81;4975966;28;45348;-89
2021/07/26 00:43:16;;;;;;;;;6.33;5.67;;;;;20.30;61.97;100699.06;4970803;28;45349;-89
2021/07/26 00:45:42;;;;;;;;;6.25;6.25;;;;;20.32;61.94;100697.13;4972239;28;45459;-89
2021/07/26 00:48:07;;;;;;;;;7.00;7.00;;;;;20.28;62.00;100698.34;4955766;28;47122;-90
2021/07/26 00:50:33;;;;;;;;;6.67;6.00;;;;;20.29;62.33;100698.22;4958230;28;44827;-89
2021/07/26 00:52:58;;;;;;;;;6.33;6.33;;;;;20.28;62.15;100688.63;4952280;28;45520;-89
2021/07/26 00:55:23;;;;;;;;;6.67;5.00;;;;;20.26;62.29;100690.53;4947755;28;45496;-89
2021/07/26 00:57:49;;;;;;;;;6.33;6.00;;;;;20.25;62.27;100688.03;4939463;28;47026;-88
2021/07/26 01:00:14;;;;;;;;;6.67;6.33;;;;;20.22;62.25;100698.84;4950777;28;45665;-90
2021/07/26 01:02:40;;;;;;;;;5.00;5.00;;;;;20.19;62.26;100696.44;4955671;28;45448;-89
2021/07/26 01:05:05;;;;;;;;;6.00;6.00;;;;;20.21;62.28;100708.56;4967721;28;45525;-89
2021/07/26 01:07:31;;;;;;;;;6.00;5.75;;;;;20.21;61.91;100705.91;4954063;28;47592;-88
2021/07/26 01:09:56;;;;;;;;;5.00;5.00;;;;;20.22;62.21;100704.13;4958835;28;45523;-89
2021/07/26 01:12:22;;;;;;;;;5.50;5.00;;;;;20.22;62.32;100697.03;4961322;28;45915;-89
2021/07/26 01:14:48;;;;;;;;;7.25;6.25;;;;;20.23;62.30;100700.50;4986958;28;45601;-89
2021/07/26 01:17:14;;;;;;;;;9.75;7.00;;;;;20.25;62.38;100702.09;4995530;28;47177;-89
2021/07/26 01:19:39;;;;;;;;;9.00;8.00;;;;;20.26;61.88;100700.25;4996657;28;45438;-90
2021/07/26 01:22:04;;;;;;;;;10.00;9.33;;;;;20.28;61.57;100706.28;4992930;28;45342;-90
2021/07/26 01:24:30;;;;;;;;;9.33;8.67;;;;;20.26;61.95;100705.53;4986155;28;45513;-90
2021/07/26 01:26:55;;;;;;;;;8.75;8.00;;;;;20.27;62.18;100710.72;4979263;28;45639;-90
2021/07/26 01:29:22;;;;;;;;;8.25;8.25;;;;;20.26;62.32;100705.53;4978130;28;45376;-89
2021/07/26 01:31:47;;;;;;;;;10.50;9.75;;;;;20.24;61.95;100704.84;4976833;28;45405;-89
2021/07/26 01:34:12;;;;;;;;;11.25;10.00;;;;;20.24;61.71;100705.69;4981330;28;45290;-90
2021/07/26 01:36:39;;;;;;;;;11.00;10.50;;;;;20.25;61.79;100714.44;4959266;28;48160;-89
2021/07/26 01:39:05;;;;;;;;;12.00;10.25;;;;;20.23;62.03;100714.56;4964970;28;45365;-89
2021/07/26 01:41:35;;;;;;;;;11.00;10.00;;;;;20.21;61.97;100711.19;4994819;28;45426;-89
2021/07/26 01:44:03;;;;;;;;;11.00;9.25;;;;;20.23;61.79;100719.84;4978063;28;45668;-88
2021/07/26 01:47:02;;;;;;;;;11.25;10.50;;;;;20.24;61.80;100718.03;4996251;28;45573;-90
2021/07/26 01:49:33;;;;;;;;;11.25;10.50;;;;;20.24;61.55;100720.69;4976208;28;45760;-90
2021/07/26 01:51:59;;;;;;;;;13.50;12.25;;;;;20.18;61.74;100714.06;4991142;28;45274;-89
2021/07/26 01:54:26;;;;;;;;;14.50;12.25;;;;;20.17;61.62;100720.31;5001550;28;45562;-89
2021/07/26 01:56:52;;;;;;;;;11.75;11.75;;;;;20.15;61.42;100717.78;4971014;28;48036;-90
2021/07/26 01:59:18;;;;;;;;;14.00;11.00;;;;;20.14;61.34;100723.22;4994734;28;45367;-90
2021/07/26 02:01:43;;;;;;;;;13.00;12.00;;;;;20.12;61.04;100723.31;4993695;28;45770;-90
2021/07/26 02:04:08;;;;;;;;;11.00;11.00;;;;;20.11;61.10;100721.63;4978615;28;45500;-90
2021/07/26 02:06:34;;;;;;;;;13.33;11.67;;;;;20.09;61.61;100726.19;4983654;28;46938;-89
2021/07/26 02:08:59;;;;;;;;;11.25;10.75;;;;;20.05;61.04;100730.03;4978762;28;45391;-89
2021/07/26 02:11:25;;;;;;;;;12.67;12.67;;;;;20.01;61.07;100729.41;4968235;28;45231;-89
2021/07/26 02:13:51;;;;;;;;;10.25;10.25;;;;;20.00;61.20;100734.81;4996438;28;45396;-88
2021/07/26 02:16:17;;;;;;;;;9.50;9.00;;;;;19.98;60.55;100745.50;4990867;28;48420;-89
2021/07/26 02:18:42;;;;;;;;;7.25;7.00;;;;;19.92;61.00;100735.38;4995867;28;44686;-89
2021/07/26 02:21:08;;;;;;;;;9.25;9.25;;;;;19.90;60.82;100739.91;4992141;28;45475;-90
2021/07/26 02:23:33;;;;;;;;;7.67;6.67;;;;;19.89;61.15;100736.44;4977894;28;45547;-89
2021/07/26 02:25:58;;;;;;;;;10.00;9.67;;;;;19.92;60.62;100745.94;5010612;28;47404;-89
2021/07/26 02:28:24;;;;;;;;;11.00;10.00;;;;;19.92;60.82;100751.22;4994819;28;47094;-90
2021/07/26 02:30:50;;;;;;;;;9.00;7.00;;;;;19.87;60.84;100742.81;4994563;28;45407;-89
2021/07/26 02:33:15;;;;;;;;;9.00;9.00;;;;;19.83;60.41;100747.47;4996549;28;45398;-89
2021/07/26 02:35:41;;;;;;;;;6.75;6.25;;;;;19.76;60.63;100755.00;4992709;28;45881;-89
2021/07/26 02:38:06;;;;;;;;;7.50;7.00;;;;;19.73;60.68;100751.75;4996993;28;45887;-89
2021/07/26 02:40:32;;;;;;;;;9.00;7.25;;;;;19.69;60.78;100752.94;4976465;28;45202;-89
2021/07/26 02:42:57;;;;;;;;;7.00;7.00;;;;;19.66;60.68;100759.28;4976328;28;45480;-89
2021/07/26 02:45:24;;;;;;;;;8.25;7.00;;;;;19.60;60.81;100749.19;4993274;28;45519;-90
2021/07/26 02:47:49;;;;;;;;;7.50;7.50;;;;;19.55;60.79;100752.19;4979591;28;45417;-89
2021/07/26 02:50:15;;;;;;;;;8.25;8.25;;;;;19.49;60.80;100758.72;4997210;28;45583;-89
2021/07/26 02:52:40;;;;;;;;;6.25;6.00;;;;;19.44;60.89;100758.22;4995119;28;45563;-89
2021/07/26 02:55:06;;;;;;;;;7.75;7.75;;;;;19.35;61.12;100751.84;4980781;28;48631;-89
2021/07/26 02:57:33;;;;;;;;;11.50;10.00;;;;;19.32;61.01;100759.13;4989640;28;45534;-90
2021/07/26 02:59:58;;;;;;;;;6.25;5.00;;;;;19.28;61.18;100762.94;4996602;28;45574;-89
2021/07/26 03:02:24;;;;;;;;;9.25;9.25;;;;;19.24;61.51;100759.69;4997263;28;45297;-89
2021/07/26 03:04:49;;;;;;;;;9.50;9.50;;;;;19.23;61.51;100765.91;4988750;28;45428;-89
2021/07/26 03:07:14;;;;;;;;;10.25;8.50;;;;;19.17;61.95;100759.28;4979182;28;45273;-90
2021/07/26 03:09:40;;;;;;;;;12.25;10.25;;;;;19.15;61.88;100761.19;4980663;28;45598;-89
2021/07/26 03:12:06;;;;;;;;;8.25;8.25;;;;;19.13;62.12;100762.25;4996833;28;45277;-90
2021/07/26 03:14:31;;;;;;;;;10.50;10.50;;;;;19.12;61.70;100758.78;4996684;28;47077;-89
2021/07/26 03:16:56;;;;;;;;;7.75;7.75;;;;;19.13;61.91;100771.03;4995676;28;45375;-90
2021/07/26 03:19:22;;;;;;;;;10.50;9.50;;;;;19.15;61.67;100770.91;4979401;28;45283;-89
2021/07/26 03:22:09;;;;;;;;;8.50;8.50;;;;;19.13;61.90;100767.53;4983548;28;45507;-89
2021/07/26 03:24:35;;;;;;;;;10.25;9.25;;;;;19.09;62.01;100762.50;4994002;28;45793;-89
2021/07/26 03:27:00;;;;;;;;;8.25;8.25;;;;;19.02;61.66;100766.47;4980427;28;45524;-89
2021/07/26 03:29:25;;;;;;;;;10.00;9.00;;;;;18.98;61.96;100766.81;5012171;28;45644;-89
2021/07/26 03:31:51;;;;;;;;;9.25;8.00;;;;;18.99;62.12;100772.00;4992939;28;45671;-89
2021/07/26 03:34:16;;;;;;;;;8.00;8.00;;;;;18.97;62.16;100771.22;4981394;28;47300;-89
2021/07/26 03:36:42;;;;;;;;;10.25;9.50;;;;;18.96;62.61;100769.56;4991604;28;45507;-90
2021/07/26 03:39:07;;;;;;;;;10.75;8.75;;;;;18.95;62.25;100771.38;4977441;28;45401;-89
2021/07/26 03:41:32;;;;;;;;;9.50;9.25;;;;;18.93;62.60;100765.34;4979023;28;44815;-89
2021/07/26 03:43:58;;;;;;;;;10.50;9.00;;;;;18.92;62.78;100763.66;4977913;28;48240;-89
2021/07/26 03:46:23;;;;;;;;;13.00;10.00;;;;;18.90;62.91;100765.56;4978585;28;45457;-89
2021/07/26 03:48:48;;;;;;;;;12.50;10.50;;;;;18.89;62.73;100768.31;4980837;28;45400;-90
2021/07/26 03:51:14;;;;;;;;;11.75;9.25;;;;;18.88;62.77;100775.38;4996547;28;45651;-90
2021/07/26 03:53:39;;;;;;;;;12.25;9.75;;;;;18.86;62.87;100777.28;4992368;28;45577;-89
2021/07/26 03:56:05;;;;;;;;;11.75;10.25;;;;;18.88;62.62;100782.44;5010764;28;45271;-90
2021/07/26 03:58:30;;;;;;;;;11.50;11.00;;;;;18.87;62.74;100786.00;4996875;28;45523;-90
2021/07/26 04:00:55;;;;;;;;;12.25;12.25;;;;;18.86;63.36;100792.25;4996506;28;45415;-90
2021/07/26 04:03:27;;;;;;;;;16.50;14.25;;;;;18.86;63.13;100789.59;4986757;28;45570;-88
2021/07/26 04:06:06;;;;;;;;;11.25;11.25;;;;;18.85;62.87;100790.56;4998127;28;45474;-90
2021/07/26 04:08:35;;;;;;;;;11.50;8.75;;;;;18.81;63.31;100785.53;4979400;28;45376;-89
2021/07/26 04:11:06;;;;;;;;;10.75;10.75;;;;;18.81;62.84;100784.66;4978565;28;45464;-90
2021/07/26 04:13:34;;;;;;;;;12.50;12.50;;;;;18.81;63.55;100785.53;4977007;28;46576;-90
2021/07/26 04:15:59;;;;;;;;;13.25;12.50;;;;;18.76;63.02;100782.38;4994602;28;45348;-90
2021/07/26 04:18:25;;;;;;;;;14.75;13.75;;;;;18.71;63.63;100779.22;4995798;28;45515;-89
2021/07/26 04:20:52;;;;;;;;;13.25;12.25;;;;;18.73;63.41;100789.63;4982150;28;45321;-89
2021/07/26 04:23:17;;;;;;;;;10.50;9.50;;;;;18.72;63.79;100788.78;4978387;28;45331;-89
2021/07/26 04:25:43;;;;;;;;;18.00;15.50;;;;;18.72;63.85;100795.84;4989246;28;46797;-89
2021/07/26 04:28:08;;;;;;;;;15.75;15.25;;;;;18.75;63.67;100793.00;4964401;28;45379;-90
2021/07/26 04:30:33;;;;;;;;;14.50;12.75;;;;;18.75;63.66;100790.38;4979862;28;45524;-89
2021/07/26 04:32:59;;;;;;;;;12.00;12.00;;;;;18.74;63.82;100786.88;4997713;28;45347;-89
2021/07/26 04:35:24;;;;;;;;;16.25;12.75;;;;;18.75;63.93;100800.91;4976531;28;45455;-89
2021/07/26 04:37:50;;;;;;;;;15.25;15.00;;;;;18.75;63.54;100798.28;4984178;28;45497;-89
2021/07/26 04:40:15;;;;;;;;;12.00;12.00;;;;;18.81;63.97;100790.78;4968785;28;45365;-89
2021/07/26 04:42:42;;;;;;;;;12.00;12.00;;;;;18.84;63.86;100797.63;4979612;28;45249;-89
2021/07/26 04:45:09;;;;;;;;;13.00;12.00;;;;;18.85;63.80;100791.41;4981059;28;45510;-90
2021/07/26 04:47:35;;;;;;;;;13.25;12.50;;;;;18.89;63.80;100799.94;4991837;28;45441;-90
2021/07/26 04:50:01;;;;;;;;;9.75;9.50;;;;;18.88;63.79;100803.53;4979289;28;45605;-89
2021/07/26 04:52:27;;;;;;;;;13.75;12.00;;;;;18.88;63.44;100804.38;4976455;28;47161;-90
2021/07/26 04:54:52;;;;;;;;;17.00;13.25;;;;;18.86;63.85;100808.06;4994482;28;45317;-89
2021/07/26 04:57:18;;;;;;;;;14.00;14.00;;;;;18.82;63.90;100797.75;4986050;28;45590;-90
2021/07/26 04:59:43;;;;;;;;;14.00;13.25;;;;;18.84;63.94;100802.88;4994035;28;45371;-90
2021/07/26 05:02:09;;;;;;;;;14.00;11.75;;;;;18.84;64.09;100805.53;4991776;28;45547;-89
2021/07/26 05:04:34;;;;;;;;;13.75;12.25;;;;;18.88;63.81;100801.72;5008870;28;45684;-90
2021/07/26 05:07:03;;;;;;;;;14.75;11.75;;;;;18.92;63.89;100810.25;4963535;28;45471;-89
2021/07/26 05:09:29;;;;;;;;;2.50;2.00;;;;;18.89;64.17;100808.69;4964492;28;45495;-89
2021/07/26 05:12:03;;;;;;;;;14.00;11.00;;;;;18.90;63.67;100815.66;4984807;28;45496;-89
2021/07/26 05:14:28;;;;;;;;;10.00;10.00;;;;;18.91;64.16;100819.13;5012247;28;45792;-90
2021/07/26 05:16:54;;;;;;;;;14.00;12.25;;;;;18.87;64.18;100815.88;4992020;28;45453;-90
2021/07/26 05:19:19;;;;;;;;;12.00;11.50;;;;;18.86;64.14;100816.81;4999335;28;45350;-90
2021/07/26 05:21:45;;;;;;;;;11.50;11.50;;;;;18.86;64.42;100816.81;4976969;28;46053;-89
2021/07/26 05:24:10;;;;;;;;;14.75;10.00;;;;;18.87;64.38;100820.28;4968999;28;45995;-89
2021/07/26 05:26:35;;;;;;;;;9.50;8.00;;;;;18.86;64.44;100816.81;4991511;28;45561;-90
2021/07/26 05:29:01;;;;;;;;;11.00;9.25;;;;;18.86;64.38;100822.09;4964293;28;45381;-89
2021/07/26 05:31:26;;;;;;;;;14.00;12.00;;;;;18.85;64.20;100825.69;4978020;28;45670;-89
2021/07/26 05:33:51;;;;;;;;;11.25;9.75;;;;;18.87;64.44;100831.69;5004201;28;45428;-89
2021/07/26 05:36:17;;;;;;;;;9.50;8.75;;;;;18.87;64.63;100826.41;4996770;28;45507;-90
2021/07/26 05:38:42;;;;;;;;;10.50;10.00;;;;;18.92;64.22;100824.31;4981396;28;45747;-90
2021/07/26 05:41:08;;;;;;;;;10.00;9.00;;;;;18.93;64.59;100823.34;4983521;28;48540;-89
2021/07/26 05:43:33;;;;;;;;;13.25;12.25;;;;;18.94;64.86;100829.47;4980491;28;45499;-89
2021/07/26 05:46:00;;;;;;;;;10.75;10.75;;;;;18.92;64.17;100828.72;4978926;28;45246;-90
2021/07/26 05:48:26;;;;;;;;;9.25;9.00;;;;;18.91;64.79;100830.53;4994766;28;45515;-89
2021/07/26 05:50:51;;;;;;;;;13.50;9.00;;;;;18.91;64.66;100827.03;4979204;28;48632;-89
2021/07/26 05:53:16;;;;;;;;;8.75;8.25;;;;;18.87;65.02;100821.16;4975092;28;45472;-89
2021/07/26 05:55:42;;;;;;;;;9.75;9.50;;;;;18.88;64.94;100827.28;4995713;28;44783;-89
2021/07/26 05:58:07;;;;;;;;;8.00;8.00;;;;;18.87;64.75;100828.19;4979535;28;45581;-90
2021/07/26 06:00:44;;;;;;;;;8.50;8.25;;;;;18.83;65.09;100833.69;4989435;28;45445;-89
2021/07/26 06:03:09;;;;;;;;;11.67;9.00;;;;;18.83;65.22;100835.47;4984668;28;45517;-89
2021/07/26 06:05:36;;;;;;;;;10.33;10.00;;;;;18.83;65.00;100831.06;4974354;28;45637;-90
2021/07/26 06:08:01;;;;;;;;;8.75;8.75;;;;;18.83;65.11;100836.34;4974998;28;45381;-89
2021/07/26 06:10:27;;;;;;;;;8.75;7.25;;;;;18.82;65.07;100839.06;5007204;28;47214;-89
2021/07/26 06:12:54;;;;;;;;;9.50;8.25;;;;;18.80;65.05;100838.34;4989275;28;45231;-88
2021/07/26 06:15:19;;;;;;;;;8.50;8.50;;;;;18.81;65.02;100834.75;4979185;28;45548;-89
2021/07/26 06:17:45;;;;;;;;;7.25;7.25;;;;;18.82;64.97;100831.16;4996271;28;45327;-89
2021/07/26 06:20:11;;;;;;;;;8.00;8.00;;;;;18.86;65.07;100839.69;4994200;28;48135;-90
2021/07/26 06:22:37;;;;;;;;;8.25;8.00;;;;;18.91;65.18;100829.69;4975081;28;45494;-90
2021/07/26 06:25:09;;;;;;;;;11.75;8.00;;;;;18.95;65.02;100834.66;5014944;28;45379;-91
2021/07/26 06:27:34;;;;;;;;;7.00;7.00;;;;;19.02;65.21;100840.31;4992555;28;45463;-90
2021/07/26 06:29:59;;;;;;;;;7.25;5.50;;;;;19.06;65.43;100839.19;4981697;28;48059;-90
2021/07/26 06:32:25;;;;;;;;;13.50;7.75;;;;;19.15;65.01;100842.09;4980130;28;45411;-90
2021/07/26 06:34:50;;;;;;;;;7.75;6.50;;;;;19.17;64.86;100838.41;5015211;28;46157;-90
2021/07/26 06:37:16;;;;;;;;;8.75;7.00;;;;;19.18;64.66;100836.63;4969464;28;45540;-90
2021/07/26 06:39:41;;;;;;;;;6.00;6.00;;;;;19.16;64.54;100836.72;4982639;28;47393;-91
2021/07/26 06:42:06;;;;;;;;;8.75;7.50;;;;;19.19;64.50;100846.22;4982133;28;45277;-91
2021/07/26 06:44:32;;;;;;;;;5.50;5.50;;;;;19.18;64.52;100841.91;4979764;28;44831;-90
2021/07/26 06:46:57;;;;;;;;;7.00;6.50;;;;;19.17;64.54;100842.88;4982118;28;45619;-91
2021/07/26 06:49:23;;;;;;;;;9.67;7.33;;;;;19.19;64.34;100851.50;4985775;28;48031;-90
2021/07/26 06:51:48;;;;;;;;;6.00;5.33;;;;;19.23;64.55;100853.84;4978313;28;45400;-90
2021/07/26 06:54:14;;;;;;;;;5.00;5.00;;;;;19.29;64.41;100849.91;4977481;28;45477;-90
2021/07/26 06:56:39;;;;;;;;;4.00;4.00;;;;;19.35;64.48;100848.63;4995148;28;45471;-91
2021/07/26 06:59:05;;;;;;;;;6.67;6.67;;;;;19.39;64.16;100851.88;4980587;28;47358;-90
2021/07/26 07:01:30;;;;;;;;;6.00;6.00;;;;;19.40;64.24;100848.28;4986565;28;45385;-90
2021/07/26 07:03:55;;;;;;;;;5.67;5.33;;;;;19.41;64.11;100848.19;4986834;28;45813;-90
2021/07/26 07:06:23;;;;;;;;;8.00;8.00;;;;;19.42;64.19;100854.28;4965627;28;45569;-90
2021/07/26 07:08:49;;;;;;;;;8.00;8.00;;;;;19.42;64.18;100843.72;4982831;28;47447;-91
2021/07/26 07:11:16;;;;;;;;;10.00;8.00;;;;;19.43;64.39;100846.28;4975803;28;45648;-91
2021/07/26 07:13:43;;;;;;;;;10.67;8.00;;;;;19.53;64.27;100856.16;5011616;28;45449;-90
2021/07/26 07:16:11;;;;;;;;;9.67;8.00;;;;;19.56;64.29;100854.16;4973413;28;45595;-92
2021/07/26 07:18:37;;;;;;;;;8.67;7.00;;;;;19.62;64.09;100855.47;4986716;28;47404;-90
2021/07/26 07:21:03;;;;;;;;;7.00;7.00;;;;;19.68;64.72;100859.50;5006355;28;46643;-90
2021/07/26 07:23:28;;;;;;;;;9.00;9.00;;;;;19.74;64.24;100856.41;4983387;28;45381;-91
2021/07/26 07:25:54;;;;;;;;;11.67;7.67;;;;;19.79;64.21;100859.53;4995565;28;45491;-91
2021/07/26 07:28:20;;;;;;;;;9.00;9.00;;;;;19.84;63.99;100862.69;4998194;28;45368;-91
2021/07/26 07:30:45;;;;;;;;;8.75;8.75;;;;;19.87;63.94;100864.28;4980252;28;46169;-91
2021/07/26 07:33:10;;;;;;;;;12.00;9.75;;;;;19.88;63.61;100868.59;4993023;28;45473;-90
2021/07/26 07:35:36;;;;;;;;;11.75;11.75;;;;;19.86;64.77;100866.06;5009337;28;45285;-90
2021/07/26 07:38:01;;;;;;;;;11.00;11.00;;;;;19.88;64.73;100873.88;4986737;28;47053;-91
2021/07/26 07:40:26;;;;;;;;;10.00;8.25;;;;;19.88;64.77;100874.72;4993883;28;45467;-91
2021/07/26 07:42:53;;;;;;;;;13.75;11.00;;;;;19.91;64.79;100871.00;4980017;28;45174;-93
2021/07/26 07:45:18;;;;;;;;;10.00;9.67;;;;;19.88;65.18;100879.16;4981878;28;45447;-91
2021/07/26 07:47:44;;;;;;;;;10.33;10.00;;;;;19.86;65.24;100868.69;4981637;28;47019;-91
2021/07/26 07:50:12;;;;;;;;;11.00;9.25;;;;;19.86;65.54;100873.97;4979480;28;45880;-91
2021/07/26 07:52:38;;;;;;;;;10.75;9.75;;;;;19.75;65.14;100877.41;4981594;28;45329;-92
2021/07/26 07:55:05;;;;;;;;;9.33;9.33;;;;;19.74;65.45;100877.53;4994767;28;45278;-92
2021/07/26 07:57:32;;;;;;;;;15.00;12.00;;;;;19.76;65.39;100878.25;4979110;28;45508;-92
2021/07/26 07:59:57;;;;;;;;;12.00;10.25;;;;;19.76;65.51;100879.09;4997988;28;45608;-91
2021/07/26 08:02:23;;;;;;;;;12.50;11.00;;;;;19.81;65.75;100880.56;4964360;28;44866;-91
2021/07/26 08:04:50;;;;;;;;;10.00;9.67;;;;;19.85;65.94;100879.38;4962092;28;45485;-91
2021/07/26 08:07:16;;;;;;;;;10.33;10.00;;;;;19.85;65.63;100885.50;4979894;28;47057;-91
2021/07/26 08:09:42;;;;;;;;;12.50;11.50;;;;;19.90;65.27;100882.50;4988313;28;45348;-89
2021/07/26 08:12:07;;;;;;;;;11.25;10.50;;;;;19.93;65.17;100881.44;4980690;28;45458;-91
2021/07/26 08:14:32;;;;;;;;;10.75;10.75;;;;;19.94;65.07;100883.16;4976060;28;45540;-90
2021/07/26 08:17:02;;;;;;;;;14.50;10.75;;;;;19.96;65.01;100891.78;4993863;28;47090;-90
2021/07/26 08:19:28;;;;;;;;;13.25;12.00;;;;;19.99;65.36;100892.44;4978503;28;45490;-91
2021/07/26 08:21:53;;;;;;;;;11.25;11.00;;;;;20.06;65.27;100889.34;4973460;28;45447;-90
2021/07/26 08:24:18;;;;;;;;;14.25;12.75;;;;;20.10;65.04;100891.66;4977636;28;45810;-90
2021/07/26 08:26:44;;;;;;;;;13.00;12.50;;;;;20.19;65.02;100902.50;4951297;28;47344;-92
2021/07/26 08:29:09;;;;;;;;;16.50;13.00;;;;;20.24;64.79;100893.28;4966458;28;45805;-90
2021/07/26 08:31:35;;;;;;;;;14.00;11.75;;;;;20.31;64.63;100892.81;4984331;28;45290;-91
2021/07/26 08:34:00;;;;;;;;;16.00;13.00;;;;;20.37;64.62;100897.63;4989845;28;45302;-91
2021/07/26 08:36:25;;;;;;;;;18.25;12.50;;;;;20.39;64.71;100887.78;4976688;28;47319;-90
2021/07/26 08:38:51;;;;;;;;;14.75;13.25;;;;;20.45;64.36;100905.00;4970042;28;46718;-90
2021/07/26 08:41:19;;;;;;;;;13.75;11.25;;;;;20.53;64.59;100903.44;4968236;28;45506;-90
2021/07/26 08:43:45;;;;;;;;;13.75;12.75;;;;;20.62;63.75;100896.63;4964268;28;45442;-90
2021/07/26 08:46:11;;;;;;;;;10.50;8.50;;;;;20.68;64.01;100898.78;4967641;28;46437;-89
2021/07/26 08:48:37;;;;;;;;;14.50;13.00;;;;;20.78;63.55;100898.09;4960258;28;45561;-89
2021/07/26 08:51:03;;;;;;;;;12.00;12.00;;;;;20.83;63.84;100899.41;4976729;28;46774;-90
2021/07/26 08:53:33;;;;;;;;;12.75;12.25;;;;;20.87;63.20;100904.50;4959852;28;45544;-89
2021/07/26 08:55:59;;;;;;;;;14.25;12.00;;;;;20.92;62.99;100903.16;4959950;28;47552;-90
2021/07/26 08:58:25;;;;;;;;;12.50;10.75;;;;;20.95;62.68;100907.38;4991772;28;46515;-90
2021/07/26 09:00:50;;;;;;;;;11.00;10.00;;;;;20.97;63.20;100900.19;4959679;28;45479;-89
2021/07/26 09:03:17;;;;;;;;;10.25;10.25;;;;;21.02;62.30;100910.41;4977025;28;45557;-91
2021/07/26 09:05:44;;;;;;;;;8.25;8.00;;;;;21.07;62.90;100908.25;4975239;28;48134;-90
2021/07/26 09:08:09;;;;;;;;;9.75;9.75;;;;;21.15;62.11;100908.47;4977654;28;45374;-90
2021/07/26 09:10:37;;;;;;;;;11.50;10.50;;;;;21.21;61.79;100921.22;4962250;28;45332;-90
2021/07/26 09:13:05;;;;;;;;;9.50;9.50;;;;;21.23;61.32;100918.44;4959846;28;45255;-89
2021/07/26 09:15:33;;;;;;;;;7.25;7.25;;;;;21.25;61.27;100916.53;4962706;28;47446;-90
2021/07/26 09:18:06;;;;;;;;;8.33;7.00;;;;;21.26;61.15;100918.22;4959430;28;45365;-89
2021/07/26 09:20:33;;;;;;;;;7.67;7.67;;;;;21.33;61.70;100915.91;4975756;28;45364;-90
2021/07/26 09:23:21;;;;;;;;;10.00;8.67;;;;;21.40;60.63;100918.94;4962604;28;45559;-90
2021/07/26 09:25:49;;;;;;;;;10.33;9.67;;;;;21.49;60.73;100912.91;4958021;28;47338;-89
2021/07/26 09:28:22;;;;;;;;;9.00;9.00;;;;;21.56;60.78;100915.91;4977128;28;45389;-89
2021/07/26 09:30:52;;;;;;;;;9.00;9.00;;;;;21.57;60.66;100905.19;4975743;28;46730;-89
2021/07/26 09:33:18;;;;;;;;;8.00;6.75;;;;;21.55;60.30;100915.06;4959945;28;45608;-90
2021/07/26 09:35:44;;;;;;;;;10.75;7.75;;;;;21.53;60.42;100906.41;4958690;28;47280;-90
2021/07/26 09:38:10;;;;;;;;;10.75;7.75;;;;;21.49;60.82;100900.50;4975790;28;45353;-90
2021/07/26 09:40:36;;;;;;;;;14.00;12.75;;;;;21.51;61.39;100902.22;4969502;28;45364;-90
2021/07/26 09:43:17;;;;;;;;;8.67;8.67;;;;;21.47;61.83;100912.16;4977337;28;45479;-89
2021/07/26 09:45:42;;;;;;;;;9.33;8.67;;;;;21.44;61.39;100913.25;4958501;28;46345;-89
2021/07/26 09:48:10;;;;;;;;;7.00;7.00;;;;;21.42;61.72;100923.13;4950503;28;45504;-90
2021/07/26 09:50:41;;;;;;;;;10.75;10.75;;;;;21.39;61.89;100919.91;4962707;28;45452;-92
2021/07/26 09:53:17;;;;;;;;;11.00;8.00;;;;;21.33;61.84;100924.72;4942790;28;45263;-91
2021/07/26 09:55:44;;;;;;;;;9.00;9.00;;;;;21.26;62.00;100923.50;4958006;28;47096;-91
2021/07/26 09:58:12;;;;;;;;;9.50;9.50;;;;;21.21;62.58;100921.22;4979239;28;45416;-91
2021/07/26 10:00:41;;;;;;;;;8.00;8.00;;;;;21.11;62.86;100925.56;4991144;28;45313;-91
2021/07/26 10:03:12;;;;;;;;;12.00;11.25;;;;;21.10;63.00;100926.50;4997764;28;45466;-91
2021/07/26 10:05:39;;;;;;;;;11.00;10.25;;;;;21.05;63.32;100921.59;4986512;28;47319;-91
2021/07/26 10:08:06;;;;;;;;;13.75;11.00;;;;;21.06;63.27;100936.47;4980993;28;45502;-91
2021/07/26 10:10:33;;;;;;;;;12.75;12.75;;;;;21.00;63.67;100934.31;4972841;28;45451;-90
2021/07/26 10:12:59;;;;;;;;;13.50;12.75;;;;;20.94;63.33;100932.16;4944352;28;45382;-92
2021/07/26 10:15:27;;;;;;;;;14.00;13.75;;;;;20.94;63.74;100934.78;4944834;28;47979;-91
2021/07/26 10:17:52;;;;;;;;;13.50;13.25;;;;;20.94;64.15;100932.16;4952506;28;45319;-91
2021/07/26 10:20:20;;;;;;;;;14.50;13.00;;;;;20.98;64.25;100936.25;4959334;28;45591;-91
2021/07/26 10:23:01;;;;;;;;;9.75;8.75;;;;;21.02;64.38;100935.03;4978494;28;44779;-91
2021/07/26 10:25:39;;;;;;;;;12.00;11.75;;;;;20.97;64.31;100931.94;4979122;28;48480;-91
2021/07/26 10:28:11;;;;;;;;;16.25;15.25;;;;;20.96;64.33;100939.00;4957981;28;46306;-90
2021/07/26 10:30:37;;;;;;;;;15.25;14.00;;;;;20.95;64.60;100941.75;4966951;28;45421;-91
2021/07/26 10:33:04;;;;;;;;;17.25;15.00;;;;;20.92;64.74;100942.03;4945707;28;45319;-91
2021/07/26 10:35:37;;;;;;;;;18.75;15.75;;;;;20.94;64.68;100942.72;4962818;28;48082;-91
2021/07/26 10:38:03;;;;;;;;;19.50;17.50;;;;;21.00;65.08;100939.59;4964684;28;45428;-91
2021/07/26 10:40:36;;;;;;;;;17.25;14.25;;;;;21.03;65.42;100941.19;4952388;28;45407;-90
2021/07/26 10:43:02;;;;;;;;;16.25;15.25;;;;;21.09;65.09;100938.06;5012141;28;45831;-91
2021/07/26 10:45:33;;;;;;;;;17.75;14.50;;;;;21.12;65.09;100937.81;4999640;28;46666;-91
2021/07/26 10:48:21;;;;;;;;;17.00;17.00;;;;;21.11;64.81;100936.16;5003241;28;45415;-91
2021/07/26 10:50:57;;;;;;;;;15.00;13.25;;;;;21.08;64.45;100947.81;5015173;28;45387;-91
2021/07/26 10:53:34;;;;;;;;;12.75;12.00;;;;;21.08;64.57;100944.31;4999674;28;45430;-91
2021/07/26 10:56:04;;;;;;;;;15.75;14.25;;;;;21.11;64.95;100940.59;4998359;28;47366;-90
2021/07/26 10:58:38;;;;;;;;;17.00;14.75;;;;;21.11;64.95;100944.09;5000186;28;45276;-91
2021/07/26 11:01:22;;;;;;;;;15.50;15.00;;;;;21.14;64.72;100933.25;4999010;28;45324;-90
2021/07/26 11:03:49;;;;;;;;;13.50;13.50;;;;;21.19;64.96;100940.81;4999234;28;45309;-90
2021/07/26 11:06:39;;;;;;;;;15.00;15.00;;;;;21.22;64.85;100937.94;4993763;28;47684;-89
2021/07/26 11:09:32;;;;;;;;;17.25;17.25;;;;;21.25;64.66;100940.38;5004774;28;45459;-90
2021/07/26 11:11:59;;;;;;;;;20.00;17.25;;;;;21.33;64.99;100934.44;4996654;28;45470;-90
2021/07/26 11:14:25;;;;;;;;;18.50;17.25;;;;;21.41;64.96;100931.19;4990726;28;45785;-90
2021/07/26 11:16:50;;;;;;;;;15.25;14.25;;;;;21.56;63.94;100921.22;4996216;28;45356;-90